sensor_id;sensor_type;location;lat;lon;timestamp;P1;durP1;ratioP1;P2;durP2;ratioP2
48795;SDS011;34607;48.520;-1.330;2023-02-17T07:45:26;5.20;;;4.38;;
48795;SDS011;34607;48.520;-1.330;2023-02-17T07:47:53;6.53;;;4.40;;
48795;SDS011;34607;48.520;-1.330;2023-02-17T07:50:21;5.32;;;4.82;;
48795;SDS011;34607;48.520;-1.330;2023-02-17T07:52:49;5.90;;;4.70;;
48795;SDS011;34607;48.520;-1.330;2023-02-17T07:55:16;5.90;;;5.10;;
48795;SDS011;34607;48.520;-1.330;2023-02-17T07:57:43;7.07;;;5.63;;
48795;SDS011;34607;48.520;-1.330;2023-02-17T08:00:11;6.72;;;4.95;;
48795;SDS011;34607;48.520;-1.330;2023-02-17T08:02:40;6.55;;;5.68;;
48795;SDS011;34607;48.520;-1.330;2023-02-17T08:05:07;6.05;;;5.30;;
48795;SDS011;34607;48.520;-1.330;2023-02-17T08:07:34;5.18;;;4.68;;
48795;SDS011;34607;48.520;-1.330;2023-02-17T08:10:01;7.40;;;5.63;;
48795;SDS011;34607;48.520;-1.330;2023-02-17T08:15:31;8.57;;;4.77;;
48795;SDS011;34607;48.520;-1.330;2023-02-17T08:18:00;6.40;;;4.50;;
48795;SDS011;34607;48.520;-1.330;2023-02-17T08:20:29;6.10;;;5.00;;
48795;SDS011;34607;48.520;-1.330;2023-02-17T08:22:56;7.13;;;4.72;;
48795;SDS011;34607;48.520;-1.330;2023-02-17T08:25:25;6.05;;;4.72;;
48795;SDS011;34607;48.520;-1.330;2023-02-17T08:27:52;6.32;;;4.82;;
48795;SDS011;34607;48.520;-1.330;2023-02-17T08:30:20;5.38;;;4.53;;
48795;SDS011;34607;48.520;-1.330;2023-02-17T08:32:47;4.85;;;4.22;;
48795;SDS011;34607;48.520;-1.330;2023-02-17T08:35:15;4.70;;;4.20;;
48795;SDS011;34607;48.520;-1.330;2023-02-17T08:37:43;5.13;;;4.40;;
48795;SDS011;34607;48.520;-1.330;2023-02-17T08:40:10;5.85;;;4.47;;
48795;SDS011;34607;48.520;-1.330;2023-02-17T08:42:38;5.35;;;4.40;;
48795;SDS011;34607;48.520;-1.330;2023-02-17T08:45:05;5.65;;;4.68;;
48795;SDS011;34607;48.520;-1.330;2023-02-17T08:47:33;6.53;;;5.30;;
48795;SDS011;34607;48.520;-1.330;2023-02-17T08:50:01;5.05;;;4.30;;
48795;SDS011;34607;48.520;-1.330;2023-02-17T08:52:30;5.88;;;4.72;;
48795;SDS011;34607;48.520;-1.330;2023-02-17T08:54:57;7.30;;;5.10;;
48795;SDS011;34607;48.520;-1.330;2023-02-17T08:57:24;5.60;;;4.53;;
48795;SDS011;34607;48.520;-1.330;2023-02-17T08:59:52;6.07;;;4.35;;
48795;SDS011;34607;48.520;-1.330;2023-02-17T09:02:19;6.60;;;4.95;;
48795;SDS011;34607;48.520;-1.330;2023-02-17T09:04:46;5.35;;;4.47;;
48795;SDS011;34607;48.520;-1.330;2023-02-17T09:07:13;5.78;;;5.18;;
48795;SDS011;34607;48.520;-1.330;2023-02-17T09:09:42;5.95;;;4.72;;
48795;SDS011;34607;48.520;-1.330;2023-02-17T09:12:10;5.72;;;4.63;;
48795;SDS011;34607;48.520;-1.330;2023-02-17T09:14:37;5.35;;;4.78;;
48795;SDS011;34607;48.520;-1.330;2023-02-17T09:17:04;5.32;;;4.28;;
48795;SDS011;34607;48.520;-1.330;2023-02-17T09:19:31;6.50;;;4.68;;
48795;SDS011;34607;48.520;-1.330;2023-02-17T09:21:58;5.72;;;4.45;;
48795;SDS011;34607;48.520;-1.330;2023-02-17T09:24:25;5.63;;;4.75;;
48795;SDS011;34607;48.520;-1.330;2023-02-17T09:26:54;5.18;;;4.57;;
48795;SDS011;34607;48.520;-1.330;2023-02-17T09:29:21;4.85;;;4.05;;
48795;SDS011;34607;48.520;-1.330;2023-02-17T09:31:48;4.63;;;4.15;;
48795;SDS011;34607;48.520;-1.330;2023-02-17T09:34:15;5.40;;;4.65;;
48795;SDS011;34607;48.520;-1.330;2023-02-17T09:36:42;5.28;;;4.75;;
48795;SDS011;34607;48.520;-1.330;2023-02-17T09:39:10;7.40;;;5.00;;
48795;SDS011;34607;48.520;-1.330;2023-02-17T09:41:40;5.65;;;4.70;;
48795;SDS011;34607;48.520;-1.330;2023-02-17T09:44:15;9.68;;;4.88;;
48795;SDS011;34607;48.520;-1.330;2023-02-17T09:46:47;7.05;;;5.18;;
48795;SDS011;34607;48.520;-1.330;2023-02-17T09:49:21;6.40;;;5.30;;
48795;SDS011;34607;48.520;-1.330;2023-02-17T09:51:52;7.18;;;6.20;;
48795;SDS011;34607;48.520;-1.330;2023-02-17T09:54:25;9.30;;;7.05;;
48795;SDS011;34607;48.520;-1.330;2023-02-17T09:56:57;7.05;;;6.20;;
48795;SDS011;34607;48.520;-1.330;2023-02-17T09:59:29;7.88;;;5.85;;
48795;SDS011;34607;48.520;-1.330;2023-02-17T10:02:04;8.75;;;5.88;;
48795;SDS011;34607;48.520;-1.330;2023-02-17T10:04:38;6.95;;;5.63;;
48795;SDS011;34607;48.520;-1.330;2023-02-17T10:07:10;6.53;;;5.85;;
48795;SDS011;34607;48.520;-1.330;2023-02-17T10:09:45;6.68;;;6.05;;
48795;SDS011;34607;48.520;-1.330;2023-02-17T10:12:16;7.35;;;5.20;;
48795;SDS011;34607;48.520;-1.330;2023-02-17T10:14:48;7.85;;;5.30;;
48795;SDS011;34607;48.520;-1.330;2023-02-17T10:17:21;6.65;;;5.53;;
48795;SDS011;34607;48.520;-1.330;2023-02-17T10:19:55;5.70;;;5.10;;
48795;SDS011;34607;48.520;-1.330;2023-02-17T10:22:28;6.10;;;5.50;;
48795;SDS011;34607;48.520;-1.330;2023-02-17T10:24:57;8.15;;;6.07;;
48795;SDS011;34607;48.520;-1.330;2023-02-17T10:27:27;10.68;;;7.15;;
48795;SDS011;34607;48.520;-1.330;2023-02-17T10:30:05;8.80;;;6.47;;
48795;SDS011;34607;48.520;-1.330;2023-02-17T10:32:48;10.32;;;6.43;;
48795;SDS011;34607;48.520;-1.330;2023-02-17T10:35:26;8.98;;;7.03;;
48795;SDS011;34607;48.520;-1.330;2023-02-17T10:38:05;9.05;;;7.35;;
48795;SDS011;34607;48.520;-1.330;2023-02-17T10:40:41;9.57;;;7.03;;
48795;SDS011;34607;48.520;-1.330;2023-02-17T10:43:14;9.57;;;7.15;;
48795;SDS011;34607;48.520;-1.330;2023-02-17T10:45:49;7.95;;;6.55;;
48795;SDS011;34607;48.520;-1.330;2023-02-17T10:48:18;7.10;;;6.40;;
48795;SDS011;34607;48.520;-1.330;2023-02-17T10:50:47;7.47;;;6.50;;
48795;SDS011;34607;48.520;-1.330;2023-02-17T10:53:15;7.22;;;6.28;;
48795;SDS011;34607;48.520;-1.330;2023-02-17T10:55:49;6.70;;;6.00;;
48795;SDS011;34607;48.520;-1.330;2023-02-17T10:58:25;7.10;;;6.18;;
48795;SDS011;34607;48.520;-1.330;2023-02-17T11:00:58;8.40;;;6.68;;
48795;SDS011;34607;48.520;-1.330;2023-02-17T11:03:28;7.80;;;6.47;;
48795;SDS011;34607;48.520;-1.330;2023-02-17T11:05:56;7.25;;;6.32;;
48795;SDS011;34607;48.520;-1.330;2023-02-17T11:08:35;7.38;;;6.57;;
48795;SDS011;34607;48.520;-1.330;2023-02-17T11:11:06;9.55;;;7.18;;
48795;SDS011;34607;48.520;-1.330;2023-02-17T11:13:42;7.82;;;6.50;;
48795;SDS011;34607;48.520;-1.330;2023-02-17T11:16:21;8.15;;;6.70;;
48795;SDS011;34607;48.520;-1.330;2023-02-17T11:18:52;8.90;;;7.00;;
48795;SDS011;34607;48.520;-1.330;2023-02-17T11:21:21;7.10;;;6.40;;
48795;SDS011;34607;48.520;-1.330;2023-02-17T11:23:49;8.52;;;6.88;;
48795;SDS011;34607;48.520;-1.330;2023-02-17T11:26:21;8.27;;;6.50;;
48795;SDS011;34607;48.520;-1.330;2023-02-17T11:28:49;7.60;;;6.60;;
48795;SDS011;34607;48.520;-1.330;2023-02-17T11:31:25;7.32;;;6.63;;
48795;SDS011;34607;48.520;-1.330;2023-02-17T11:33:54;7.43;;;6.28;;
48795;SDS011;34607;48.520;-1.330;2023-02-17T11:36:22;8.07;;;6.68;;
48795;SDS011;34607;48.520;-1.330;2023-02-17T11:38:51;8.55;;;7.65;;
48795;SDS011;34607;48.520;-1.330;2023-02-17T11:41:18;9.93;;;8.77;;
48795;SDS011;34607;48.520;-1.330;2023-02-17T11:43:52;10.27;;;8.45;;
48795;SDS011;34607;48.520;-1.330;2023-02-17T11:46:28;14.10;;;9.60;;
48795;SDS011;34607;48.520;-1.330;2023-02-17T11:49:16;15.32;;;10.05;;
48795;SDS011;34607;48.520;-1.330;2023-02-17T11:52:07;13.82;;;8.38;;
48795;SDS011;34607;48.520;-1.330;2023-02-17T11:54:53;15.70;;;8.20;;
48795;SDS011;34607;48.520;-1.330;2023-02-17T11:57:39;10.52;;;6.53;;
48795;SDS011;34607;48.520;-1.330;2023-02-17T12:00:10;14.38;;;5.78;;
48795;SDS011;34607;48.520;-1.330;2023-02-17T12:02:51;20.35;;;11.15;;
48795;SDS011;34607;48.520;-1.330;2023-02-17T12:05:48;9.15;;;5.88;;
48795;SDS011;34607;48.520;-1.330;2023-02-17T12:08:21;15.55;;;9.35;;
48795;SDS011;34607;48.520;-1.330;2023-02-17T12:10:59;14.75;;;7.38;;
48795;SDS011;34607;48.520;-1.330;2023-02-17T12:13:35;8.00;;;6.43;;
48795;SDS011;34607;48.520;-1.330;2023-02-17T12:19:18;5.88;;;3.60;;
48795;SDS011;34607;48.520;-1.330;2023-02-17T12:22:00;8.27;;;4.80;;
48795;SDS011;34607;48.520;-1.330;2023-02-17T12:24:39;11.07;;;4.07;;
48795;SDS011;34607;48.520;-1.330;2023-02-17T12:27:17;7.15;;;3.53;;
48795;SDS011;34607;48.520;-1.330;2023-02-17T12:29:58;5.82;;;3.75;;
48795;SDS011;34607;48.520;-1.330;2023-02-17T12:32:34;8.50;;;5.18;;
48795;SDS011;34607;48.520;-1.330;2023-02-17T12:35:14;8.18;;;4.68;;
48795;SDS011;34607;48.520;-1.330;2023-02-17T12:37:47;7.80;;;5.25;;
48795;SDS011;34607;48.520;-1.330;2023-02-17T12:40:23;5.40;;;4.18;;
48795;SDS011;34607;48.520;-1.330;2023-02-17T12:42:59;6.10;;;4.43;;
48795;SDS011;34607;48.520;-1.330;2023-02-17T12:45:31;5.88;;;3.95;;
48795;SDS011;34607;48.520;-1.330;2023-02-17T12:48:03;6.78;;;3.65;;
48795;SDS011;34607;48.520;-1.330;2023-02-17T12:50:34;5.95;;;4.10;;
48795;SDS011;34607;48.520;-1.330;2023-02-17T12:53:04;6.78;;;4.38;;
48795;SDS011;34607;48.520;-1.330;2023-02-17T12:55:39;5.95;;;3.63;;
48795;SDS011;34607;48.520;-1.330;2023-02-17T12:58:14;8.85;;;4.30;;
48795;SDS011;34607;48.520;-1.330;2023-02-17T13:00:44;9.50;;;4.68;;
48795;SDS011;34607;48.520;-1.330;2023-02-17T13:03:14;5.85;;;4.00;;
48795;SDS011;34607;48.520;-1.330;2023-02-17T13:05:43;12.52;;;9.63;;
48795;SDS011;34607;48.520;-1.330;2023-02-17T13:08:17;8.40;;;5.05;;
48795;SDS011;34607;48.520;-1.330;2023-02-17T13:10:58;10.32;;;4.35;;
48795;SDS011;34607;48.520;-1.330;2023-02-17T13:13:27;6.43;;;4.68;;
48795;SDS011;34607;48.520;-1.330;2023-02-17T13:16:03;10.23;;;6.10;;
48795;SDS011;34607;48.520;-1.330;2023-02-17T13:18:32;8.70;;;7.90;;
48795;SDS011;34607;48.520;-1.330;2023-02-17T13:21:13;8.90;;;7.00;;
48795;SDS011;34607;48.520;-1.330;2023-02-17T13:23:43;6.05;;;5.13;;
48795;SDS011;34607;48.520;-1.330;2023-02-17T13:29:09;8.70;;;4.00;;
48795;SDS011;34607;48.520;-1.330;2023-02-17T13:31:47;6.93;;;4.72;;
48795;SDS011;34607;48.520;-1.330;2023-02-17T13:34:24;4.75;;;3.85;;
48795;SDS011;34607;48.520;-1.330;2023-02-17T13:36:55;8.05;;;4.30;;
48795;SDS011;34607;48.520;-1.330;2023-02-17T13:39:30;6.75;;;4.07;;
48795;SDS011;34607;48.520;-1.330;2023-02-17T13:42:00;5.28;;;3.88;;
48795;SDS011;34607;48.520;-1.330;2023-02-17T13:44:28;7.03;;;4.05;;
48795;SDS011;34607;48.520;-1.330;2023-02-17T13:46:57;5.65;;;3.33;;
48795;SDS011;34607;48.520;-1.330;2023-02-17T13:49:27;8.10;;;3.53;;
48795;SDS011;34607;48.520;-1.330;2023-02-17T13:52:07;10.07;;;3.85;;
48795;SDS011;34607;48.520;-1.330;2023-02-17T13:54:36;10.65;;;3.53;;
48795;SDS011;34607;48.520;-1.330;2023-02-17T13:57:03;6.70;;;3.95;;
48795;SDS011;34607;48.520;-1.330;2023-02-17T13:59:30;7.55;;;3.97;;
48795;SDS011;34607;48.520;-1.330;2023-02-17T14:01:59;5.78;;;3.10;;
48795;SDS011;34607;48.520;-1.330;2023-02-17T14:04:26;10.65;;;4.10;;
48795;SDS011;34607;48.520;-1.330;2023-02-17T14:06:56;10.38;;;3.90;;
48795;SDS011;34607;48.520;-1.330;2023-02-17T14:09:26;7.82;;;4.18;;
48795;SDS011;34607;48.520;-1.330;2023-02-17T14:11:55;8.38;;;3.33;;
48795;SDS011;34607;48.520;-1.330;2023-02-17T14:14:25;5.70;;;3.00;;
48795;SDS011;34607;48.520;-1.330;2023-02-17T14:16:56;8.15;;;3.45;;
48795;SDS011;34607;48.520;-1.330;2023-02-17T14:19:25;7.78;;;5.00;;
48795;SDS011;34607;48.520;-1.330;2023-02-17T14:21:56;11.07;;;4.85;;
48795;SDS011;34607;48.520;-1.330;2023-02-17T14:24:27;8.50;;;5.65;;
48795;SDS011;34607;48.520;-1.330;2023-02-17T14:26:58;23.25;;;18.92;;
48795;SDS011;34607;48.520;-1.330;2023-02-17T14:29:36;24.15;;;17.98;;
48795;SDS011;34607;48.520;-1.330;2023-02-17T14:32:04;19.42;;;15.52;;
48795;SDS011;34607;48.520;-1.330;2023-02-17T14:34:33;17.67;;;14.13;;
48795;SDS011;34607;48.520;-1.330;2023-02-17T14:37:08;13.18;;;10.57;;
48795;SDS011;34607;48.520;-1.330;2023-02-17T14:39:37;19.52;;;17.05;;
48795;SDS011;34607;48.520;-1.330;2023-02-17T14:42:04;14.65;;;13.25;;
48795;SDS011;34607;48.520;-1.330;2023-02-17T14:44:31;11.98;;;9.82;;
48795;SDS011;34607;48.520;-1.330;2023-02-17T14:46:58;10.82;;;8.43;;
48795;SDS011;34607;48.520;-1.330;2023-02-17T14:49:25;22.40;;;12.80;;
48795;SDS011;34607;48.520;-1.330;2023-02-17T14:51:53;11.80;;;6.90;;
48795;SDS011;34607;48.520;-1.330;2023-02-17T14:54:20;7.05;;;4.45;;
48795;SDS011;34607;48.520;-1.330;2023-02-17T14:56:50;11.45;;;6.10;;
48795;SDS011;34607;48.520;-1.330;2023-02-17T14:59:23;12.45;;;8.70;;
48795;SDS011;34607;48.520;-1.330;2023-02-17T15:01:50;15.00;;;12.27;;
48795;SDS011;34607;48.520;-1.330;2023-02-17T15:04:17;10.82;;;9.13;;
48795;SDS011;34607;48.520;-1.330;2023-02-17T15:06:47;7.07;;;4.82;;
48795;SDS011;34607;48.520;-1.330;2023-02-17T15:09:30;8.90;;;4.25;;
48795;SDS011;34607;48.520;-1.330;2023-02-17T15:11:59;8.30;;;4.03;;
48795;SDS011;34607;48.520;-1.330;2023-02-17T15:14:27;9.57;;;4.03;;
48795;SDS011;34607;48.520;-1.330;2023-02-17T15:16:54;11.32;;;4.18;;
48795;SDS011;34607;48.520;-1.330;2023-02-17T15:19:21;5.18;;;3.75;;
48795;SDS011;34607;48.520;-1.330;2023-02-17T15:21:49;7.47;;;4.75;;
48795;SDS011;34607;48.520;-1.330;2023-02-17T15:24:18;6.25;;;3.10;;
48795;SDS011;34607;48.520;-1.330;2023-02-17T15:26:48;5.53;;;3.38;;
48795;SDS011;34607;48.520;-1.330;2023-02-17T15:29:17;3.80;;;2.95;;
48795;SDS011;34607;48.520;-1.330;2023-02-17T15:31:46;5.03;;;3.08;;
48795;SDS011;34607;48.520;-1.330;2023-02-17T15:34:15;5.55;;;3.22;;
48795;SDS011;34607;48.520;-1.330;2023-02-17T15:36:44;6.38;;;2.70;;
48795;SDS011;34607;48.520;-1.330;2023-02-17T15:39:11;6.03;;;4.15;;
48795;SDS011;34607;48.520;-1.330;2023-02-17T15:41:40;8.82;;;4.15;;
48795;SDS011;34607;48.520;-1.330;2023-02-17T15:44:11;5.05;;;3.00;;
48795;SDS011;34607;48.520;-1.330;2023-02-17T15:46:42;7.22;;;4.10;;
48795;SDS011;34607;48.520;-1.330;2023-02-17T15:49:11;7.40;;;2.78;;
48795;SDS011;34607;48.520;-1.330;2023-02-17T15:51:39;11.05;;;6.57;;
48795;SDS011;34607;48.520;-1.330;2023-02-17T15:54:06;17.10;;;9.25;;
48795;SDS011;34607;48.520;-1.330;2023-02-17T15:56:35;11.10;;;7.55;;
48795;SDS011;34607;48.520;-1.330;2023-02-17T15:59:09;9.80;;;7.93;;
48795;SDS011;34607;48.520;-1.330;2023-02-17T16:01:42;11.48;;;8.63;;
48795;SDS011;34607;48.520;-1.330;2023-02-17T16:04:10;9.77;;;5.20;;
48795;SDS011;34607;48.520;-1.330;2023-02-17T16:06:38;5.88;;;3.90;;
48795;SDS011;34607;48.520;-1.330;2023-02-17T16:09:05;9.65;;;5.90;;
48795;SDS011;34607;48.520;-1.330;2023-02-17T16:11:33;16.35;;;9.82;;
48795;SDS011;34607;48.520;-1.330;2023-02-17T16:14:01;14.30;;;8.10;;
48795;SDS011;34607;48.520;-1.330;2023-02-17T16:16:30;11.05;;;8.60;;
48795;SDS011;34607;48.520;-1.330;2023-02-17T16:18:59;8.55;;;7.22;;
48795;SDS011;34607;48.520;-1.330;2023-02-17T16:21:27;12.57;;;7.28;;
48795;SDS011;34607;48.520;-1.330;2023-02-17T16:23:54;12.32;;;9.13;;
48795;SDS011;34607;48.520;-1.330;2023-02-17T16:26:25;13.15;;;10.98;;
48795;SDS011;34607;48.520;-1.330;2023-02-17T16:29:00;8.77;;;6.68;;
48795;SDS011;34607;48.520;-1.330;2023-02-17T16:31:38;8.85;;;5.63;;
48795;SDS011;34607;48.520;-1.330;2023-02-17T16:34:10;5.80;;;5.18;;
48795;SDS011;34607;48.520;-1.330;2023-02-17T16:36:39;9.15;;;5.57;;
48795;SDS011;34607;48.520;-1.330;2023-02-17T16:39:09;10.05;;;7.25;;
48795;SDS011;34607;48.520;-1.330;2023-02-17T16:41:37;7.53;;;5.13;;
48795;SDS011;34607;48.520;-1.330;2023-02-17T16:44:04;9.02;;;3.97;;
48795;SDS011;34607;48.520;-1.330;2023-02-17T16:46:33;7.53;;;3.38;;
48795;SDS011;34607;48.520;-1.330;2023-02-17T16:49:03;11.30;;;5.10;;
48795;SDS011;34607;48.520;-1.330;2023-02-17T16:51:41;5.05;;;3.72;;
48795;SDS011;34607;48.520;-1.330;2023-02-17T16:54:08;8.55;;;5.10;;
48795;SDS011;34607;48.520;-1.330;2023-02-17T16:56:36;14.70;;;8.38;;
48795;SDS011;34607;48.520;-1.330;2023-02-17T16:59:11;11.85;;;7.45;;
48795;SDS011;34607;48.520;-1.330;2023-02-17T17:01:39;16.45;;;11.15;;
48795;SDS011;34607;48.520;-1.330;2023-02-17T17:04:11;15.52;;;11.77;;
48795;SDS011;34607;48.520;-1.330;2023-02-17T17:06:41;14.80;;;9.63;;
48795;SDS011;34607;48.520;-1.330;2023-02-17T17:09:11;7.38;;;5.57;;
48795;SDS011;34607;48.520;-1.330;2023-02-17T17:11:41;15.65;;;12.07;;
48795;SDS011;34607;48.520;-1.330;2023-02-17T17:14:08;11.10;;;7.68;;
48795;SDS011;34607;48.520;-1.330;2023-02-17T17:16:36;11.52;;;8.23;;
48795;SDS011;34607;48.520;-1.330;2023-02-17T17:19:04;12.75;;;10.32;;
48795;SDS011;34607;48.520;-1.330;2023-02-17T17:21:33;13.50;;;10.63;;
48795;SDS011;34607;48.520;-1.330;2023-02-17T17:24:00;10.60;;;8.65;;
48795;SDS011;34607;48.520;-1.330;2023-02-17T17:26:32;14.77;;;11.07;;
48795;SDS011;34607;48.520;-1.330;2023-02-17T17:29:03;32.80;;;21.52;;
48795;SDS011;34607;48.520;-1.330;2023-02-17T17:31:31;18.08;;;14.52;;
48795;SDS011;34607;48.520;-1.330;2023-02-17T17:33:59;18.55;;;13.82;;
48795;SDS011;34607;48.520;-1.330;2023-02-17T17:36:29;24.38;;;18.25;;
48795;SDS011;34607;48.520;-1.330;2023-02-17T17:39:00;32.80;;;24.55;;
48795;SDS011;34607;48.520;-1.330;2023-02-17T17:41:28;31.85;;;27.92;;
48795;SDS011;34607;48.520;-1.330;2023-02-17T17:43:55;36.35;;;29.15;;
48795;SDS011;34607;48.520;-1.330;2023-02-17T17:46:24;32.20;;;27.73;;
48795;SDS011;34607;48.520;-1.330;2023-02-17T17:48:53;29.92;;;24.55;;
48795;SDS011;34607;48.520;-1.330;2023-02-17T17:51:23;41.78;;;36.08;;
48795;SDS011;34607;48.520;-1.330;2023-02-17T17:53:51;43.17;;;38.38;;
48795;SDS011;34607;48.520;-1.330;2023-02-17T17:56:20;42.13;;;37.42;;
48795;SDS011;34607;48.520;-1.330;2023-02-17T17:58:49;22.85;;;18.23;;
48795;SDS011;34607;48.520;-1.330;2023-02-17T18:01:17;28.77;;;20.70;;
48795;SDS011;34607;48.520;-1.330;2023-02-17T18:03:45;17.95;;;12.30;;
48795;SDS011;34607;48.520;-1.330;2023-02-17T18:06:15;36.88;;;27.17;;
48795;SDS011;34607;48.520;-1.330;2023-02-17T18:08:45;22.27;;;19.92;;
48795;SDS011;34607;48.520;-1.330;2023-02-17T18:11:15;18.85;;;16.77;;
48795;SDS011;34607;48.520;-1.330;2023-02-17T18:13:46;23.88;;;16.23;;
48795;SDS011;34607;48.520;-1.330;2023-02-17T18:16:16;33.83;;;22.88;;
48795;SDS011;34607;48.520;-1.330;2023-02-17T18:18:45;26.55;;;20.25;;
48795;SDS011;34607;48.520;-1.330;2023-02-17T18:21:12;17.10;;;14.02;;
48795;SDS011;34607;48.520;-1.330;2023-02-17T18:23:39;15.30;;;12.70;;
48795;SDS011;34607;48.520;-1.330;2023-02-17T18:26:07;31.17;;;23.55;;
48795;SDS011;34607;48.520;-1.330;2023-02-17T18:28:34;24.73;;;17.80;;
48795;SDS011;34607;48.520;-1.330;2023-02-17T18:31:06;31.80;;;23.20;;
48795;SDS011;34607;48.520;-1.330;2023-02-17T18:33:34;97.28;;;71.88;;
48795;SDS011;34607;48.520;-1.330;2023-02-17T18:36:04;77.28;;;56.33;;
48795;SDS011;34607;48.520;-1.330;2023-02-17T18:38:32;48.03;;;34.88;;
48795;SDS011;34607;48.520;-1.330;2023-02-17T18:40:59;43.17;;;30.42;;
48795;SDS011;34607;48.520;-1.330;2023-02-17T18:43:26;43.63;;;34.13;;
48795;SDS011;34607;48.520;-1.330;2023-02-17T18:45:54;40.35;;;33.05;;
48795;SDS011;34607;48.520;-1.330;2023-02-17T18:48:22;39.22;;;34.45;;
48795;SDS011;34607;48.520;-1.330;2023-02-17T18:50:49;43.20;;;31.90;;
48795;SDS011;34607;48.520;-1.330;2023-02-17T18:53:17;46.13;;;33.17;;
48795;SDS011;34607;48.520;-1.330;2023-02-17T18:55:44;41.70;;;27.30;;
48795;SDS011;34607;48.520;-1.330;2023-02-17T18:58:11;58.00;;;44.25;;
48795;SDS011;34607;48.520;-1.330;2023-02-17T19:00:38;41.13;;;26.13;;
48795;SDS011;34607;48.520;-1.330;2023-02-17T19:03:05;33.70;;;24.88;;
48795;SDS011;34607;48.520;-1.330;2023-02-17T19:05:43;14.85;;;11.43;;
48795;SDS011;34607;48.520;-1.330;2023-02-17T19:08:10;16.80;;;14.82;;
48795;SDS011;34607;48.520;-1.330;2023-02-17T19:10:37;12.38;;;10.55;;
48795;SDS011;34607;48.520;-1.330;2023-02-17T19:13:04;17.95;;;14.95;;
48795;SDS011;34607;48.520;-1.330;2023-02-17T19:15:31;15.70;;;14.02;;
48795;SDS011;34607;48.520;-1.330;2023-02-17T19:17:58;19.85;;;12.73;;
48795;SDS011;34607;48.520;-1.330;2023-02-17T19:20:26;11.95;;;10.07;;
48795;SDS011;34607;48.520;-1.330;2023-02-17T19:22:59;10.32;;;9.02;;
48795;SDS011;34607;48.520;-1.330;2023-02-17T19:25:26;12.55;;;8.55;;
48795;SDS011;34607;48.520;-1.330;2023-02-17T19:27:53;11.30;;;9.43;;
48795;SDS011;34607;48.520;-1.330;2023-02-17T19:30:21;15.05;;;10.38;;
48795;SDS011;34607;48.520;-1.330;2023-02-17T19:32:48;12.40;;;9.32;;
48795;SDS011;34607;48.520;-1.330;2023-02-17T19:35:15;10.93;;;5.55;;
48795;SDS011;34607;48.520;-1.330;2023-02-17T19:37:43;8.02;;;5.60;;
48795;SDS011;34607;48.520;-1.330;2023-02-17T19:40:11;10.35;;;5.05;;
48795;SDS011;34607;48.520;-1.330;2023-02-17T19:42:39;8.48;;;4.95;;
48795;SDS011;34607;48.520;-1.330;2023-02-17T19:45:06;5.18;;;4.07;;
48795;SDS011;34607;48.520;-1.330;2023-02-17T19:47:33;8.65;;;4.15;;
48795;SDS011;34607;48.520;-1.330;2023-02-17T19:50:04;7.68;;;4.55;;
48795;SDS011;34607;48.520;-1.330;2023-02-17T19:52:32;7.15;;;4.60;;
48795;SDS011;34607;48.520;-1.330;2023-02-17T19:55:02;6.30;;;3.83;;
48795;SDS011;34607;48.520;-1.330;2023-02-17T19:57:31;7.20;;;4.05;;
48795;SDS011;34607;48.520;-1.330;2023-02-17T20:03:17;6.65;;;3.47;;
48795;SDS011;34607;48.520;-1.330;2023-02-17T20:05:45;5.35;;;3.80;;
48795;SDS011;34607;48.520;-1.330;2023-02-17T20:08:12;9.90;;;4.88;;
48795;SDS011;34607;48.520;-1.330;2023-02-17T20:10:39;7.15;;;4.88;;
48795;SDS011;34607;48.520;-1.330;2023-02-17T20:13:07;8.45;;;3.75;;
48795;SDS011;34607;48.520;-1.330;2023-02-17T20:15:35;6.93;;;3.95;;
48795;SDS011;34607;48.520;-1.330;2023-02-17T20:18:02;6.45;;;3.33;;
48795;SDS011;34607;48.520;-1.330;2023-02-17T20:20:29;5.53;;;2.78;;
48795;SDS011;34607;48.520;-1.330;2023-02-17T20:22:56;8.52;;;3.65;;
48795;SDS011;34607;48.520;-1.330;2023-02-17T20:25:24;7.07;;;3.00;;
48795;SDS011;34607;48.520;-1.330;2023-02-17T20:27:52;8.27;;;2.95;;
48795;SDS011;34607;48.520;-1.330;2023-02-17T20:30:20;10.40;;;2.72;;
48795;SDS011;34607;48.520;-1.330;2023-02-17T20:32:48;4.63;;;2.72;;
48795;SDS011;34607;48.520;-1.330;2023-02-17T20:35:15;5.47;;;2.47;;
48795;SDS011;34607;48.520;-1.330;2023-02-17T20:37:42;4.60;;;2.67;;
48795;SDS011;34607;48.520;-1.330;2023-02-17T20:40:09;5.90;;;3.13;;
